createdAt,value
2018-08-06T00:00:22.748Z,66.68
2018-08-06T00:02:51.217Z,66.90
2018-08-06T00:05:19.773Z,66.62
2018-08-06T00:07:48.393Z,64.46
2018-08-06T00:10:19.332Z,64.88
2018-08-06T00:12:47.788Z,65.99
2018-08-06T00:15:16.585Z,65.92
2018-08-06T00:17:45.445Z,67.18
2018-08-06T00:20:14.712Z,68.91
2018-08-06T00:22:43.409Z,69.22
2018-08-06T00:25:13.219Z,70.00
2018-08-06T00:27:42.454Z,71.17
2018-08-06T00:30:13.385Z,70.60
2018-08-06T00:32:42.730Z,70.75
2018-08-06T00:35:11.868Z,70.68
2018-08-06T00:37:40.599Z,71.24
2018-08-06T00:40:15.367Z,70.24
2018-08-06T00:42:44.534Z,71.36
2018-08-06T00:45:16.694Z,71.64
2018-08-06T00:47:45.701Z,71.96
2018-08-06T00:50:14.279Z,71.07
2018-08-06T00:52:42.754Z,70.15
2018-08-06T00:55:13.494Z,70.60
2018-08-06T00:57:42.340Z,71.26
2018-08-06T01:00:13.629Z,71.63
2018-08-06T01:02:42.106Z,71.86
2018-08-06T01:05:11.941Z,72.04
2018-08-06T01:07:40.941Z,71.58
2018-08-06T01:10:11.357Z,71.87
2018-08-06T01:12:40.486Z,72.93
2018-08-06T01:15:10.390Z,72.75
2018-08-06T01:17:38.807Z,72.55
2018-08-06T01:20:09.296Z,73.35
2018-08-06T01:22:37.777Z,73.04
2018-08-06T01:25:06.556Z,72.50
2018-08-06T01:27:35.566Z,73.10
2018-08-06T01:30:04.386Z,73.26
2018-08-06T01:32:32.820Z,72.67
2018-08-06T01:35:01.309Z,73.56
2018-08-06T01:37:29.708Z,74.99
2018-08-06T01:39:58.104Z,73.89
2018-08-06T01:42:26.589Z,74.04
2018-08-06T01:44:55.057Z,73.83
2018-08-06T01:47:23.606Z,75.04
2018-08-06T01:49:52.125Z,75.58
2018-08-06T01:52:20.572Z,75.92
2018-08-06T01:54:49.001Z,76.96
2018-08-06T01:57:17.529Z,77.38
2018-08-06T01:59:45.994Z,78.66
2018-08-06T02:02:14.581Z,78.34
2018-08-06T02:04:43.006Z,78.41
2018-08-06T02:07:11.445Z,78.49
2018-08-06T02:09:39.852Z,77.62
2018-08-06T02:12:08.669Z,79.55
2018-08-06T02:14:37.185Z,80.57
2018-08-06T02:17:05.830Z,80.74
2018-08-06T02:19:34.307Z,80.43
2018-08-06T02:22:02.809Z,79.77
2018-08-06T02:24:31.308Z,79.78
2018-08-06T02:26:59.798Z,78.53
2018-08-06T02:29:28.305Z,78.03
2018-08-06T02:31:56.898Z,78.14
2018-08-06T02:34:25.353Z,78.74
2018-08-06T02:36:53.817Z,78.84
2018-08-06T02:39:22.269Z,79.28
2018-08-06T02:41:50.687Z,81.48
2018-08-06T02:44:19.217Z,81.00
2018-08-06T02:46:47.704Z,80.89
2018-08-06T02:49:16.169Z,80.39
2018-08-06T02:51:44.664Z,81.40
2018-08-06T02:54:13.065Z,80.00
2018-08-06T02:56:41.570Z,80.05
2018-08-06T02:59:10.031Z,78.33
2018-08-06T03:01:38.495Z,78.25
2018-08-06T03:04:06.966Z,78.85
2018-08-06T03:06:35.526Z,78.47
2018-08-06T03:09:05.642Z,79.97
2018-08-06T03:11:34.130Z,80.74
2018-08-06T03:14:02.582Z,80.98
2018-08-06T03:16:31.051Z,80.83
2018-08-06T03:18:59.491Z,82.55
2018-08-06T03:21:27.950Z,82.63
2018-08-06T03:23:56.368Z,83.15
2018-08-06T03:26:24.885Z,84.33
2018-08-06T03:28:53.329Z,84.77
2018-08-06T03:31:21.816Z,84.33
2018-08-06T03:33:50.225Z,84.44
2018-08-06T03:36:18.663Z,85.12
2018-08-06T03:38:47.077Z,84.97
2018-08-06T03:41:15.569Z,85.96
2018-08-06T03:43:43.984Z,85.07
2018-08-06T03:46:12.386Z,85.60
2018-08-06T03:48:40.925Z,85.29
2018-08-06T03:51:09.394Z,86.11
2018-08-06T03:53:37.845Z,85.47
2018-08-06T03:56:06.283Z,85.93
2018-08-06T03:58:34.742Z,85.80
2018-08-06T04:01:03.217Z,85.90
2018-08-06T04:03:31.723Z,86.34
2018-08-06T04:06:00.141Z,85.19
2018-08-06T04:08:28.617Z,84.99
2018-08-06T04:10:57.040Z,85.00
2018-08-06T04:13:25.650Z,86.11
2018-08-06T04:15:54.002Z,86.94
2018-08-06T04:18:22.427Z,86.99
2018-08-06T04:20:50.840Z,87.65
2018-08-06T04:23:19.300Z,88.06
2018-08-06T04:25:47.719Z,86.73
2018-08-06T04:28:16.174Z,85.49
2018-08-06T04:30:44.581Z,84.99
2018-08-06T04:33:13.087Z,83.87
2018-08-06T04:35:41.470Z,84.31
2018-08-06T04:38:09.891Z,84.36
2018-08-06T04:40:38.310Z,85.47
2018-08-06T04:43:06.793Z,84.85
2018-08-06T04:45:35.209Z,85.50
2018-08-06T04:48:03.714Z,84.86
2018-08-06T04:50:32.166Z,85.02
2018-08-06T04:53:00.682Z,84.27
2018-08-06T04:55:29.202Z,84.09
2018-08-06T04:57:57.683Z,82.67
2018-08-06T05:00:26.127Z,82.16
2018-08-06T05:02:54.564Z,82.73
2018-08-06T05:05:23.043Z,82.35
2018-08-06T05:07:51.578Z,82.62
2018-08-06T05:10:19.993Z,80.68
2018-08-06T05:12:48.515Z,79.91
2018-08-06T05:15:17.260Z,81.98
2018-08-06T05:17:45.733Z,82.73
2018-08-06T05:20:14.160Z,82.51
2018-08-06T05:22:42.596Z,81.05
2018-08-06T05:25:11.106Z,80.31
2018-08-06T05:27:39.636Z,80.94
2018-08-06T05:30:10.283Z,80.74
2018-08-06T05:32:38.771Z,79.62
2018-08-06T05:35:07.561Z,77.91
2018-08-06T05:37:36.039Z,78.52
2018-08-06T05:40:05.137Z,78.28
2018-08-06T05:42:33.672Z,78.01
2018-08-06T05:45:02.117Z,78.26
2018-08-06T05:47:30.580Z,76.64
2018-08-06T05:49:59.145Z,75.45
2018-08-06T05:52:27.643Z,73.92
2018-08-06T05:54:56.685Z,73.67
2018-08-06T05:57:25.123Z,72.83
2018-08-06T05:59:53.588Z,71.85
2018-08-06T06:02:24.481Z,72.17
2018-08-06T06:04:52.937Z,72.43
2018-08-06T06:07:21.757Z,72.09
2018-08-06T06:09:50.559Z,72.63
2018-08-06T06:12:19.544Z,71.65
2018-08-06T06:14:48.087Z,70.96
2018-08-06T06:17:16.510Z,70.39
2018-08-06T06:19:44.973Z,69.79
2018-08-06T06:22:13.442Z,70.06
2018-08-06T06:24:41.965Z,69.39
2018-08-06T06:27:10.360Z,68.56
2018-08-06T06:29:39.158Z,67.75
2018-08-06T06:32:08.292Z,67.12
2018-08-06T06:34:37.570Z,64.97
2018-08-06T06:37:06.053Z,64.20
2018-08-06T06:39:34.481Z,62.52
2018-08-06T06:42:02.938Z,62.45
2018-08-06T06:44:31.366Z,61.17
2018-08-06T06:46:59.772Z,59.04
2018-08-06T06:49:28.238Z,58.31
2018-08-06T06:51:56.693Z,57.07
2018-08-06T06:54:25.314Z,57.40
2018-08-06T06:56:53.637Z,56.80
2018-08-06T06:59:22.148Z,56.37
2018-08-06T07:01:50.535Z,55.88
2018-08-06T07:04:18.976Z,55.12
2018-08-06T07:06:47.397Z,54.61
2018-08-06T07:09:15.803Z,54.14
2018-08-06T07:11:44.267Z,53.92
2018-08-06T07:14:12.758Z,53.49
2018-08-06T07:16:41.176Z,52.94
2018-08-06T07:19:09.662Z,52.41
2018-08-06T07:21:38.261Z,52.18
2018-08-06T07:24:06.868Z,51.51
2018-08-06T07:26:35.541Z,51.01
2018-08-06T07:29:04.035Z,50.50
2018-08-06T07:31:32.451Z,49.99
2018-08-06T07:34:00.915Z,49.73
2018-08-06T07:36:29.372Z,49.63
2018-08-06T07:38:57.872Z,48.94
2018-08-06T07:41:26.321Z,49.47
2018-08-06T07:43:54.762Z,48.37
2018-08-06T07:46:23.237Z,49.00
2018-08-06T07:48:52.020Z,47.62
2018-08-06T07:51:20.475Z,48.48
2018-08-06T07:53:48.942Z,48.34
2018-08-06T07:56:17.388Z,46.05
2018-08-06T07:58:45.838Z,47.78
2018-08-06T08:01:14.273Z,46.84
2018-08-06T08:03:42.792Z,46.78
2018-08-06T08:06:11.272Z,47.92
2018-08-06T08:08:39.721Z,46.91
2018-08-06T08:11:08.201Z,46.21
2018-08-06T08:13:36.600Z,45.91
2018-08-06T08:16:05.549Z,46.56
2018-08-06T08:18:34.000Z,45.60
2018-08-06T08:21:02.470Z,46.35
2018-08-06T08:23:30.928Z,45.43
2018-08-06T08:25:59.428Z,46.06
2018-08-06T08:28:27.926Z,45.61
2018-08-06T08:30:56.429Z,45.47
2018-08-06T08:33:24.943Z,44.42
2018-08-06T08:35:53.478Z,44.55
2018-08-06T08:38:21.908Z,44.61
2018-08-06T08:40:50.431Z,44.22
2018-08-06T08:43:18.958Z,43.53
2018-08-06T08:45:47.407Z,42.81
2018-08-06T08:48:16.334Z,43.30
2018-08-06T08:50:44.836Z,43.43
2018-08-06T08:53:13.285Z,43.38
2018-08-06T08:55:41.764Z,43.38
2018-08-06T08:58:10.185Z,43.31
2018-08-06T09:00:38.680Z,42.98
2018-08-06T09:03:07.404Z,42.69
2018-08-06T09:05:35.902Z,42.59
2018-08-06T09:08:04.433Z,41.75
2018-08-06T09:10:32.865Z,40.70
2018-08-06T09:13:01.470Z,41.60
2018-08-06T09:15:30.053Z,40.43
2018-08-06T09:17:58.484Z,42.24
2018-08-06T09:20:27.154Z,41.47
2018-08-06T09:22:55.570Z,40.77
2018-08-06T09:25:23.976Z,40.04
2018-08-06T09:27:52.749Z,40.22
2018-08-06T09:30:22.481Z,40.07
2018-08-06T09:32:52.499Z,39.99
2018-08-06T09:35:21.253Z,40.75
2018-08-06T09:37:49.782Z,40.07
2018-08-06T09:40:19.503Z,41.26
2018-08-06T09:42:48.641Z,39.15
2018-08-06T09:45:18.307Z,39.69
2018-08-06T09:47:48.113Z,38.86
2018-08-06T09:50:17.245Z,37.22
2018-08-06T09:52:46.825Z,38.11
2018-08-06T09:55:18.533Z,37.40
2018-08-06T09:57:47.561Z,36.60
2018-08-06T10:00:22.288Z,36.39
2018-08-06T10:02:51.617Z,37.27
2018-08-06T10:05:21.422Z,36.59
2018-08-06T10:07:49.913Z,37.55
2018-08-06T10:10:18.418Z,37.72
2018-08-06T10:12:47.230Z,37.87
2018-08-06T10:15:16.177Z,37.79
2018-08-06T10:17:45.557Z,35.25
2018-08-06T10:20:17.198Z,36.67
2018-08-06T10:22:45.651Z,37.42
2018-08-06T10:25:15.040Z,37.52
2018-08-06T10:27:44.336Z,37.26
2018-08-06T10:30:15.304Z,36.84
2018-08-06T10:32:44.027Z,36.30
2018-08-06T10:35:13.432Z,35.87
2018-08-06T10:37:41.946Z,36.83
2018-08-06T10:40:13.912Z,35.74
2018-08-06T10:42:43.109Z,36.47
2018-08-06T10:45:14.616Z,37.57
2018-08-06T10:47:43.200Z,35.94
2018-08-06T10:50:12.345Z,35.68
2018-08-06T10:52:40.860Z,36.55
2018-08-06T10:55:10.133Z,35.76
2018-08-06T10:57:39.565Z,36.40
2018-08-06T11:00:21.504Z,35.54
2018-08-06T11:02:50.287Z,36.13
2018-08-06T11:05:19.242Z,34.71
2018-08-06T11:07:47.738Z,34.46
2018-08-06T11:10:19.409Z,34.25
2018-08-06T11:12:48.018Z,33.84
2018-08-06T11:15:19.269Z,34.26
2018-08-06T11:17:48.329Z,33.28
2018-08-06T11:20:17.658Z,34.08
2018-08-06T11:22:46.270Z,33.70
2018-08-06T11:25:17.330Z,34.30
2018-08-06T11:27:45.869Z,32.83
2018-08-06T11:30:16.091Z,33.68
2018-08-06T11:32:45.017Z,34.83
2018-08-06T11:35:14.189Z,34.02
2018-08-06T11:37:43.042Z,33.35
2018-08-06T11:40:12.654Z,34.21
2018-08-06T11:42:41.989Z,34.19
2018-08-06T11:45:12.726Z,33.84
2018-08-06T11:47:41.202Z,34.55
2018-08-06T11:50:15.548Z,33.51
2018-08-06T11:52:44.081Z,33.38
2018-08-06T11:55:12.581Z,33.52
2018-08-06T11:57:41.138Z,34.43
2018-08-06T12:00:14.450Z,33.27
2018-08-06T12:02:42.849Z,32.82
2018-08-06T12:05:11.353Z,32.94
2018-08-06T12:07:39.914Z,32.68
2018-08-06T12:10:11.640Z,31.23
2018-08-06T12:12:40.073Z,31.11
2018-08-06T12:15:09.369Z,31.12
2018-08-06T12:17:38.421Z,31.59
2018-08-06T12:20:09.507Z,32.61
2018-08-06T12:22:38.210Z,33.12
2018-08-06T12:25:07.974Z,32.28
2018-08-06T12:27:36.478Z,32.06
2018-08-06T12:30:07.328Z,32.43
2018-08-06T12:32:35.752Z,30.39
2018-08-06T12:35:04.529Z,32.28
2018-08-06T12:37:33.017Z,30.31
2018-08-06T12:40:01.380Z,31.74
2018-08-06T12:42:29.894Z,31.93
2018-08-06T12:44:58.291Z,31.56
2018-08-06T12:47:26.722Z,32.42
2018-08-06T12:49:55.143Z,30.73
2018-08-06T12:52:23.568Z,30.29
2018-08-06T12:54:52.042Z,29.02
2018-08-06T12:57:27.762Z,29.26
2018-08-06T13:00:00.274Z,26.74
2018-08-06T13:02:28.989Z,29.02
2018-08-06T13:04:57.614Z,27.78
2018-08-06T13:07:26.077Z,27.64
2018-08-06T13:09:55.221Z,28.73
2018-08-06T13:12:23.721Z,27.54
2018-08-06T13:14:52.189Z,28.28
2018-08-06T13:17:33.542Z,28.03
2018-08-06T13:20:03.073Z,26.62
2018-08-06T13:22:36.809Z,24.91
2018-08-06T13:25:07.127Z,24.46
2018-08-06T13:27:35.581Z,22.45
2018-08-06T13:30:05.018Z,22.36
2018-08-06T13:32:33.473Z,22.44
2018-08-06T13:35:01.947Z,21.69
2018-08-06T13:37:30.449Z,21.00
2018-08-06T13:39:58.957Z,21.00
2018-08-06T13:42:27.450Z,20.57
2018-08-06T13:44:55.923Z,20.52
2018-08-06T13:47:24.427Z,20.32
2018-08-06T13:49:52.852Z,20.97
2018-08-06T13:52:21.430Z,19.83
2018-08-06T13:54:49.848Z,19.67
2018-08-06T13:57:18.317Z,20.83
2018-08-06T13:59:46.784Z,19.54
2018-08-06T14:02:15.570Z,19.17
2018-08-06T14:04:44.013Z,18.82
2018-08-06T14:07:12.418Z,18.87
2018-08-06T14:09:40.878Z,19.26
2018-08-06T14:12:09.323Z,19.91
2018-08-06T14:14:37.745Z,19.82
2018-08-06T14:17:06.729Z,19.90
2018-08-06T14:19:35.184Z,19.02
2018-08-06T14:22:09.374Z,18.47
2018-08-06T14:24:37.906Z,19.48
2018-08-06T14:27:06.374Z,19.37
2018-08-06T14:29:34.809Z,19.32
2018-08-06T14:32:03.517Z,18.43
2018-08-06T14:34:31.977Z,18.30
2018-08-06T14:37:00.555Z,17.92
2018-08-06T14:39:29.051Z,17.83
2018-08-06T14:41:57.538Z,18.38
2018-08-06T14:44:26.020Z,18.28
2018-08-06T14:46:54.445Z,19.20
2018-08-06T14:49:22.893Z,17.98
2018-08-06T14:51:51.546Z,18.05
2018-08-06T14:54:19.965Z,18.49
2018-08-06T14:56:48.362Z,18.15
2018-08-06T14:59:16.833Z,18.27
2018-08-06T15:01:45.284Z,17.81
2018-08-06T15:04:13.719Z,18.32
2018-08-06T15:06:42.184Z,17.54
2018-08-06T15:09:14.540Z,17.10
2018-08-06T15:11:43.468Z,15.83
2018-08-06T15:14:11.933Z,16.85
2018-08-06T15:16:40.497Z,16.86
2018-08-06T15:19:09.044Z,17.55
2018-08-06T15:21:37.567Z,19.31
2018-08-06T15:24:06.065Z,19.33
2018-08-06T15:26:35.526Z,19.65
2018-08-06T15:29:04.530Z,18.65
2018-08-06T15:31:33.045Z,18.31
2018-08-06T15:34:01.525Z,18.24
2018-08-06T15:36:29.973Z,18.14
2018-08-06T15:38:58.435Z,18.31
2018-08-06T15:41:26.900Z,19.25
2018-08-06T15:43:55.415Z,18.60
2018-08-06T15:46:23.942Z,18.75
2018-08-06T15:48:52.390Z,18.06
2018-08-06T15:51:20.874Z,18.61
2018-08-06T15:53:49.337Z,19.44
2018-08-06T15:56:17.778Z,18.89
2018-08-06T15:58:46.313Z,18.32
2018-08-06T16:01:14.761Z,18.73
2018-08-06T16:03:43.450Z,19.93
2018-08-06T16:06:11.842Z,19.97
2018-08-06T16:08:40.320Z,20.16
2018-08-06T16:11:08.786Z,20.84
2018-08-06T16:13:37.291Z,19.81
2018-08-06T16:16:05.797Z,20.73
2018-08-06T16:18:34.418Z,20.03
2018-08-06T16:21:03.049Z,19.67
2018-08-06T16:23:31.505Z,19.42
2018-08-06T16:26:00.027Z,20.55
2018-08-06T16:28:28.549Z,19.86
2018-08-06T16:30:57.035Z,20.21
2018-08-06T16:33:25.499Z,19.56
2018-08-06T16:35:54.234Z,20.58
2018-08-06T16:38:22.989Z,20.26
2018-08-06T16:40:51.547Z,20.05
2018-08-06T16:43:20.081Z,20.34
2018-08-06T16:45:48.614Z,20.73
2018-08-06T16:48:17.397Z,20.76
2018-08-06T16:50:46.019Z,22.23
2018-08-06T16:53:14.466Z,22.41
2018-08-06T16:55:43.245Z,23.63
2018-08-06T16:58:12.233Z,26.49
2018-08-06T17:00:40.744Z,26.98
2018-08-06T17:03:09.173Z,23.50
2018-08-06T17:05:37.642Z,25.31
2018-08-06T17:08:06.173Z,24.84
2018-08-06T17:10:34.786Z,24.29
2018-08-06T17:13:03.499Z,25.72
2018-08-06T17:15:31.995Z,27.22
2018-08-06T17:18:00.477Z,30.16
2018-08-06T17:20:28.925Z,28.93
2018-08-06T17:22:57.407Z,29.32
2018-08-06T17:25:25.927Z,31.25
2018-08-06T17:27:54.433Z,31.76
2018-08-06T17:30:23.123Z,29.70
2018-08-06T17:32:51.621Z,29.87
2018-08-06T17:35:20.129Z,29.66
2018-08-06T17:37:49.203Z,31.25
2018-08-06T17:40:18.937Z,30.13
2018-08-06T17:42:47.607Z,31.60
2018-08-06T17:45:19.140Z,30.92
2018-08-06T17:47:47.623Z,31.36
2018-08-06T17:50:18.230Z,32.50
2018-08-06T17:52:48.301Z,31.60
2018-08-06T17:55:17.986Z,31.89
2018-08-06T17:57:48.032Z,31.19
2018-08-06T18:00:17.029Z,32.78
2018-08-06T18:02:45.582Z,32.70
2018-08-06T18:05:15.274Z,32.27
2018-08-06T18:07:44.156Z,32.60
2018-08-06T18:10:13.959Z,32.66
2018-08-06T18:12:43.090Z,33.94
2018-08-06T18:15:11.622Z,30.61
2018-08-06T18:17:40.093Z,29.10
2018-08-06T18:20:12.619Z,26.62
2018-08-06T18:22:41.081Z,27.28
2018-08-06T18:25:11.425Z,25.62
2018-08-06T18:27:39.884Z,28.02
2018-08-06T18:30:12.341Z,29.59
2018-08-06T18:32:40.806Z,29.76
2018-08-06T18:35:10.588Z,31.56
2018-08-06T18:37:46.785Z,31.00
2018-08-06T18:40:16.341Z,33.42
2018-08-06T18:42:44.795Z,33.51
2018-08-06T18:45:15.509Z,33.71
2018-08-06T18:47:44.814Z,33.96
2018-08-06T18:50:14.222Z,33.51
2018-08-06T18:52:43.754Z,32.71
2018-08-06T18:55:13.169Z,33.46
2018-08-06T18:57:42.046Z,32.07
2018-08-06T19:00:20.453Z,32.40
2018-08-06T19:02:49.000Z,33.83
2018-08-06T19:05:18.033Z,32.65
2018-08-06T19:07:46.551Z,34.30
2018-08-06T19:10:15.096Z,34.28
2018-08-06T19:12:48.875Z,33.81
2018-08-06T19:15:17.412Z,34.23
2018-08-06T19:17:51.109Z,34.08
2018-08-06T19:20:19.589Z,34.75
2018-08-06T19:22:48.025Z,35.66
2018-08-06T19:25:21.825Z,36.83
2018-08-06T19:27:50.304Z,36.12
2018-08-06T19:30:18.763Z,36.02
2018-08-06T19:32:47.465Z,35.57
2018-08-06T19:35:15.941Z,35.36
2018-08-06T19:37:44.769Z,36.03
2018-08-06T19:40:13.296Z,35.68
2018-08-06T19:45:35.715Z,36.83
2018-08-06T19:48:04.246Z,37.11
2018-08-06T19:50:42.485Z,38.90
2018-08-06T19:53:10.968Z,37.73
2018-08-06T19:55:44.809Z,39.12
2018-08-06T19:58:13.338Z,41.42
2018-08-06T20:00:41.805Z,41.04
2018-08-06T20:03:10.352Z,39.42
2018-08-06T20:05:38.821Z,40.39
2018-08-06T20:08:07.320Z,42.11
2018-08-06T20:10:35.870Z,40.99
2018-08-06T20:13:04.277Z,41.13
2018-08-06T20:15:32.708Z,41.59
2018-08-06T20:18:01.225Z,42.57
2018-08-06T20:20:29.630Z,40.50
2018-08-06T20:23:00.159Z,41.13
2018-08-06T20:25:28.592Z,42.38
2018-08-06T20:27:57.078Z,41.80
2018-08-06T20:30:25.522Z,40.85
2018-08-06T20:32:54.021Z,40.04
2018-08-06T20:35:22.603Z,40.76
2018-08-06T20:37:51.081Z,42.03
2018-08-06T20:40:19.542Z,42.21
2018-08-06T20:42:48.058Z,42.50
2018-08-06T20:45:18.491Z,42.61
2018-08-06T20:47:47.016Z,43.66
2018-08-06T20:50:17.157Z,42.70
2018-08-06T20:52:46.498Z,42.53
2018-08-06T20:55:14.959Z,42.34
2018-08-06T20:57:43.669Z,43.02
2018-08-06T21:00:19.434Z,42.34
2018-08-06T21:02:57.415Z,42.46
2018-08-06T21:05:25.869Z,42.88
2018-08-06T21:07:54.374Z,44.51
2018-08-06T21:10:22.877Z,43.70
2018-08-06T21:12:51.393Z,43.57
2018-08-06T21:15:19.906Z,44.73
2018-08-06T21:17:48.374Z,44.05
2018-08-06T21:20:18.259Z,44.63
2018-08-06T21:22:48.837Z,44.73
2018-08-06T21:25:17.475Z,44.77
2018-08-06T21:27:47.253Z,45.21
2018-08-06T21:30:18.808Z,45.84
2018-08-06T21:32:50.494Z,44.43
2018-08-06T21:35:19.813Z,44.36
2018-08-06T21:37:49.762Z,44.06
2018-08-06T21:40:19.043Z,45.37
2018-08-06T21:42:47.948Z,46.83
2018-08-06T21:45:16.695Z,45.41
2018-08-06T21:47:45.416Z,47.28
2018-08-06T21:50:14.781Z,47.48
2018-08-06T21:52:47.079Z,48.17
2018-08-06T21:55:15.561Z,49.13
2018-08-06T21:57:44.047Z,49.45
2018-08-06T22:00:22.242Z,50.31
2018-08-06T22:02:50.733Z,47.80
2018-08-06T22:05:19.216Z,46.95
2018-08-06T22:07:47.726Z,47.88
2018-08-06T22:10:16.129Z,48.00
2018-08-06T22:12:44.557Z,49.17
2018-08-06T22:15:13.058Z,47.61
2018-08-06T22:17:41.489Z,47.74
2018-08-06T22:20:09.966Z,48.32
2018-08-06T22:22:38.417Z,48.77
2018-08-06T22:25:06.977Z,50.52
2018-08-06T22:27:35.465Z,49.47
2018-08-06T22:30:04.632Z,52.49
2018-08-06T22:32:33.111Z,50.52
2018-08-06T22:35:01.526Z,50.87
2018-08-06T22:37:29.942Z,51.47
2018-08-06T22:40:04.759Z,51.32
2018-08-06T22:45:32.631Z,50.95
2018-08-06T22:48:05.341Z,51.00
2018-08-06T22:51:03.114Z,51.67
2018-08-06T22:54:09.667Z,52.41
2018-08-06T22:56:45.244Z,53.37
2018-08-06T22:59:15.755Z,53.14
2018-08-06T23:01:44.269Z,52.36
2018-08-06T23:04:13.578Z,51.68
2018-08-06T23:06:42.019Z,52.13
2018-08-06T23:09:12.114Z,52.32
2018-08-06T23:11:41.214Z,52.66
2018-08-06T23:14:09.996Z,52.74
2018-08-06T23:16:38.749Z,52.98
2018-08-06T23:19:07.189Z,53.33
2018-08-06T23:21:35.717Z,53.22
2018-08-06T23:24:04.813Z,54.02
2018-08-06T23:26:33.269Z,55.81
2018-08-06T23:29:01.864Z,55.66
2018-08-06T23:31:30.340Z,55.86
2018-08-06T23:33:58.840Z,57.95
2018-08-06T23:36:27.334Z,55.64
2018-08-06T23:38:55.802Z,56.55
2018-08-06T23:41:24.245Z,56.43
2018-08-06T23:43:52.735Z,56.46
2018-08-06T23:46:21.217Z,56.43
2018-08-06T23:48:50.003Z,56.17
2018-08-06T23:51:18.477Z,55.93
2018-08-06T23:53:46.923Z,56.25
2018-08-06T23:56:15.341Z,56.74
2018-08-06T23:58:43.885Z,56.97
